Time;durP1;ratioP1;P1;durP2;ratioP2;P2;SDS_P1;SDS_P2;PMS_P1;PMS_P2;Temp;Humidity;BMP_temperature;BMP_pressure;BME280_temperature;BME280_humidity;BME280_pressure;Samples;Min_cycle;Max_cycle;Signal;HPM_P1;HPM_P2
2023/11/27 00:02:13;;;;;;;3.20;2.53;;;2.00;99.90;;;;;;5056768;28;20487;-79
2023/11/27 00:04:38;;;;;;;3.58;2.80;;;2.00;99.90;;;;;;5050253;28;20076;-79
2023/11/27 00:07:04;;;;;;;12.15;3.05;;;1.90;99.90;;;;;;5055599;28;20128;-79
2023/11/27 00:09:31;;;;;;;3.42;2.67;;;1.90;99.90;;;;;;5053988;28;20033;-79
2023/11/27 00:11:57;;;;;;;2.90;2.40;;;1.90;99.90;;;;;;5052215;28;20033;-79
2023/11/27 00:14:22;;;;;;;4.00;2.60;;;1.90;99.90;;;;;;5054486;28;20058;-79
2023/11/27 00:16:48;;;;;;;3.65;2.80;;;1.90;99.90;;;;;;5062687;28;20029;-79
2023/11/27 00:19:14;;;;;;;3.45;2.67;;;1.90;99.90;;;;;;5049189;28;20515;-79
2023/11/27 00:21:40;;;;;;;4.47;2.67;;;1.90;99.90;;;;;;5063618;28;20108;-79
2023/11/27 00:24:06;;;;;;;10.65;2.85;;;1.90;99.90;;;;;;5052994;28;20048;-79
2023/11/27 00:26:31;;;;;;;4.07;2.65;;;1.90;99.90;;;;;;5070590;28;20087;-80
2023/11/27 00:28:58;;;;;;;6.93;2.80;;;1.90;99.90;;;;;;5051778;28;20021;-79
2023/11/27 00:31:24;;;;;;;3.38;2.90;;;1.90;99.90;;;;;;5051280;28;20128;-79
2023/11/27 00:33:49;;;;;;;4.57;2.92;;;1.90;99.90;;;;;;5046559;28;20025;-79
2023/11/27 00:36:16;;;;;;;13.77;2.80;;;1.90;99.90;;;;;;5048757;28;20555;-79
2023/11/27 00:38:42;;;;;;;3.33;2.50;;;1.80;99.90;;;;;;5037805;28;20496;-79
2023/11/27 00:41:08;;;;;;;3.72;2.60;;;1.80;99.90;;;;;;5047505;28;20022;-78
2023/11/27 00:43:34;;;;;;;3.10;2.63;;;1.80;99.90;;;;;;5046759;28;20433;-79
2023/11/27 00:46:00;;;;;;;2.92;2.63;;;1.80;99.90;;;;;;5043436;28;20024;-78
2023/11/27 00:48:27;;;;;;;5.00;2.53;;;1.80;99.90;;;;;;5039720;28;20090;-79
2023/11/27 00:50:53;;;;;;;2.78;2.53;;;1.80;99.90;;;;;;5015371;28;20554;-79
2023/11/27 00:53:19;;;;;;;31.58;4.13;;;1.80;99.90;;;;;;5038303;28;20087;-79
2023/11/27 00:55:44;;;;;;;4.35;2.78;;;1.80;99.90;;;;;;5052376;28;20029;-79
2023/11/27 00:58:10;;;;;;;129.35;7.25;;;1.90;99.90;;;;;;5051431;28;20039;-79
2023/11/27 01:00:36;;;;;;;2.63;2.28;;;1.80;99.90;;;;;;5051270;28;20036;-79
2023/11/27 01:03:03;;;;;;;3.22;2.78;;;1.80;99.90;;;;;;5051029;28;20021;-79
2023/11/27 01:05:29;;;;;;;3.60;2.83;;;1.80;99.90;;;;;;5046683;28;20092;-79
2023/11/27 01:07:55;;;;;;;3.75;2.97;;;1.80;99.90;;;;;;5049735;28;20402;-79
2023/11/27 01:10:24;;;;;;;5.97;3.40;;;1.80;99.90;;;;;;5045582;28;20375;-79
2023/11/27 01:12:50;;;;;;;4.00;2.53;;;1.80;99.90;;;;;;5047079;28;20110;-79
2023/11/27 01:15:39;;;;;;;4.18;3.10;;;1.80;99.90;;;;;;5051958;28;20116;-79
2023/11/27 01:18:08;;;;;;;14.48;3.05;;;1.80;99.90;;;;;;5035633;28;20033;-78
2023/11/27 01:20:39;;;;;;;6.45;3.45;;;1.90;99.90;;;;;;5040463;28;20044;-78
2023/11/27 01:23:06;;;;;;;68.40;5.55;;;1.90;99.90;;;;;;5064103;28;20097;-79
2023/11/27 01:25:32;;;;;;;5.63;2.90;;;1.90;99.90;;;;;;5045054;28;20028;-79
2023/11/27 01:27:58;;;;;;;4.45;3.20;;;1.80;99.90;;;;;;5037395;28;20104;-78
2023/11/27 01:30:24;;;;;;;4.82;3.42;;;1.80;99.90;;;;;;5040285;28;20288;-78
2023/11/27 01:32:50;;;;;;;6.63;3.75;;;1.80;99.90;;;;;;5035366;28;20885;-78
2023/11/27 01:35:15;;;;;;;4.85;2.92;;;1.90;99.90;;;;;;5049688;28;20037;-78
2023/11/27 01:37:41;;;;;;;4.47;3.45;;;1.80;99.90;;;;;;5043054;28;20222;-78
2023/11/27 01:40:07;;;;;;;21.38;4.55;;;1.80;99.90;;;;;;5047632;28;20068;-79
2023/11/27 01:42:33;;;;;;;5.57;4.00;;;1.90;99.90;;;;;;5045695;28;20098;-79
2023/11/27 01:44:59;;;;;;;6.88;4.03;;;1.90;99.90;;;;;;5041021;28;20026;-78
2023/11/27 01:47:25;;;;;;;5.75;3.60;;;1.90;99.90;;;;;;5042907;28;20085;-79
2023/11/27 01:49:51;;;;;;;4.78;3.65;;;1.80;99.90;;;;;;5045006;28;20040;-78
2023/11/27 01:52:18;;;;;;;7.68;4.07;;;1.80;99.90;;;;;;5044506;28;20505;-78
2023/11/27 01:54:44;;;;;;;6.75;3.72;;;1.80;99.90;;;;;;5037843;28;20081;-78
2023/11/27 01:57:15;;;;;;;4.55;3.50;;;1.80;99.90;;;;;;5040533;28;20057;-78
2023/11/27 01:59:45;;;;;;;5.53;3.95;;;1.80;99.90;;;;;;5042540;28;20029;-78
2023/11/27 02:02:14;;;;;;;5.88;3.90;;;1.90;99.90;;;;;;5039344;28;20037;-78
2023/11/27 02:04:39;;;;;;;53.55;6.03;;;1.80;99.90;;;;;;5037721;28;20047;-78
2023/11/27 02:07:06;;;;;;;5.95;3.70;;;1.90;99.90;;;;;;5036804;28;20037;-78
2023/11/27 02:09:32;;;;;;;6.13;4.18;;;1.90;99.90;;;;;;5024027;28;20033;-78
2023/11/27 02:11:58;;;;;;;17.60;4.80;;;1.90;99.90;;;;;;5036311;28;20029;-78
2023/11/27 02:14:24;;;;;;;18.10;5.05;;;1.90;99.90;;;;;;5040337;28;20029;-78
2023/11/27 02:16:50;;;;;;;8.18;3.88;;;1.90;99.90;;;;;;5043577;28;20059;-78
2023/11/27 02:19:17;;;;;;;8.27;5.03;;;1.90;99.90;;;;;;5044069;28;20033;-78
2023/11/27 02:21:43;;;;;;;56.10;6.50;;;1.90;99.90;;;;;;5045898;28;20029;-78
2023/11/27 02:24:09;;;;;;;7.40;4.70;;;1.90;99.90;;;;;;5050913;28;20025;-78
2023/11/27 02:26:35;;;;;;;9.65;5.20;;;1.80;99.90;;;;;;5052682;28;20030;-79
2023/11/27 02:29:02;;;;;;;7.72;6.00;;;1.80;99.90;;;;;;5049950;28;20040;-80
2023/11/27 02:31:30;;;;;;;7.55;5.10;;;1.80;99.90;;;;;;5059898;28;20040;-79
2023/11/27 02:33:56;;;;;;;11.20;5.22;;;1.80;99.90;;;;;;5060262;28;20178;-79
2023/11/27 02:36:27;;;;;;;10.00;5.45;;;1.80;99.90;;;;;;5058164;28;20045;-80
2023/11/27 02:38:53;;;;;;;10.70;5.95;;;1.90;99.90;;;;;;5055627;28;20035;-77
2023/11/27 02:41:19;;;;;;;13.00;5.55;;;1.90;99.90;;;;;;5057007;28;20806;-79
2023/11/27 02:43:45;;;;;;;28.88;8.68;;;1.90;99.90;;;;;;5056383;28;20037;-79
2023/11/27 02:46:13;;;;;;;9.32;5.25;;;1.90;99.90;;;;;;5054912;28;20063;-78
2023/11/27 02:48:38;;;;;;;54.17;7.40;;;1.90;99.90;;;;;;5050620;28;20033;-79
2023/11/27 02:51:05;;;;;;;16.05;6.82;;;1.90;99.90;;;;;;5053780;28;20037;-78
2023/11/27 02:53:32;;;;;;;86.40;9.80;;;2.00;99.90;;;;;;5045624;28;20089;-77
2023/11/27 02:55:58;;;;;;;12.45;5.65;;;2.00;99.90;;;;;;5027419;28;20029;-77
2023/11/27 02:58:24;;;;;;;25.35;6.53;;;2.00;99.90;;;;;;5031809;28;20515;-77
2023/11/27 03:00:51;;;;;;;8.65;5.80;;;1.90;99.90;;;;;;5041502;28;20075;-77
2023/11/27 03:03:17;;;;;;;9.57;6.85;;;1.90;99.90;;;;;;5038564;28;20488;-77
2023/11/27 03:05:43;;;;;;;13.95;7.15;;;2.00;99.90;;;;;;5039172;28;21512;-77
2023/11/27 03:08:10;;;;;;;12.82;6.22;;;2.00;99.90;;;;;;5039938;28;20143;-77
2023/11/27 03:10:35;;;;;;;10.27;6.25;;;1.90;99.90;;;;;;5046422;28;20163;-77
2023/11/27 03:13:01;;;;;;;12.25;5.85;;;1.90;99.90;;;;;;5043945;28;20053;-78
2023/11/27 03:15:27;;;;;;;40.15;7.82;;;1.90;99.90;;;;;;5044180;28;20022;-77
2023/11/27 03:17:52;;;;;;;16.90;6.80;;;1.90;99.90;;;;;;5040684;28;20176;-78
2023/11/27 03:20:18;;;;;;;18.45;7.65;;;1.90;99.90;;;;;;5040070;28;20075;-77
2023/11/27 03:22:44;;;;;;;21.27;7.47;;;1.90;99.90;;;;;;5044914;28;20112;-77
2023/11/27 03:25:10;;;;;;;14.98;7.05;;;1.90;99.90;;;;;;5047874;28;20497;-77
2023/11/27 03:27:37;;;;;;;11.68;6.90;;;1.90;99.90;;;;;;5051096;28;20552;-78
2023/11/27 03:30:03;;;;;;;17.05;7.47;;;1.90;99.90;;;;;;5051023;28;20112;-77
2023/11/27 03:32:30;;;;;;;10.02;6.95;;;1.90;99.90;;;;;;5054952;28;20029;-77
2023/11/27 03:35:00;;;;;;;13.35;7.13;;;1.90;99.90;;;;;;5058913;28;20092;-78
2023/11/27 03:37:25;;;;;;;13.32;6.88;;;1.90;99.90;;;;;;5055361;28;20499;-79
2023/11/27 03:39:52;;;;;;;16.73;7.13;;;1.90;99.90;;;;;;5052198;28;20036;-78
2023/11/27 03:42:18;;;;;;;18.60;7.55;;;1.80;99.90;;;;;;5047788;28;20127;-78
2023/11/27 03:44:43;;;;;;;13.57;7.72;;;1.90;99.90;;;;;;5054655;28;20056;-77
2023/11/27 03:47:09;;;;;;;14.70;7.25;;;1.90;99.90;;;;;;5059682;28;20025;-77
2023/11/27 03:49:35;;;;;;;17.90;7.25;;;1.90;99.90;;;;;;5061664;28;20047;-78
2023/11/27 03:52:01;;;;;;;12.63;7.30;;;1.90;99.90;;;;;;5063323;28;20505;-77
2023/11/27 03:54:27;;;;;;;14.23;7.13;;;1.90;99.90;;;;;;5041287;28;20041;-77
2023/11/27 03:56:53;;;;;;;10.15;6.40;;;1.90;99.90;;;;;;5044136;28;20544;-77
2023/11/27 03:59:19;;;;;;;13.80;6.90;;;1.90;99.90;;;;;;5047127;28;20033;-77
2023/11/27 04:01:45;;;;;;;9.98;6.13;;;1.90;99.90;;;;;;5050400;28;20033;-78
2023/11/27 04:04:12;;;;;;;14.75;6.47;;;1.90;99.90;;;;;;5037301;28;20028;-77
2023/11/27 04:06:38;;;;;;;9.32;6.18;;;1.90;99.90;;;;;;5047967;28;20032;-77
2023/11/27 04:09:04;;;;;;;14.23;6.53;;;1.90;99.90;;;;;;5044272;28;20026;-77
2023/11/27 04:11:31;;;;;;;12.45;6.28;;;1.90;99.90;;;;;;5049827;28;20067;-77
2023/11/27 04:14:00;;;;;;;9.63;6.63;;;1.90;99.90;;;;;;5041141;28;20116;-77
2023/11/27 04:16:26;;;;;;;13.75;6.00;;;1.90;99.90;;;;;;5052059;28;20025;-77
2023/11/27 04:18:52;;;;;;;15.10;7.15;;;1.90;99.90;;;;;;5041554;28;20048;-77
2023/11/27 04:21:18;;;;;;;13.65;6.85;;;1.90;99.90;;;;;;5040323;28;20045;-77
2023/11/27 04:23:48;;;;;;;10.88;6.63;;;1.90;99.90;;;;;;5041470;28;20459;-78
2023/11/27 04:26:15;;;;;;;10.43;5.90;;;1.90;99.90;;;;;;5053951;28;20118;-78
2023/11/27 04:28:41;;;;;;;11.60;6.97;;;1.90;99.90;;;;;;5044339;28;20057;-78
2023/11/27 04:31:08;;;;;;;11.85;6.07;;;1.90;99.90;;;;;;5048961;28;20496;-78
2023/11/27 04:33:34;;;;;;;13.27;6.45;;;1.90;99.90;;;;;;5046033;28;20598;-78
2023/11/27 04:36:00;;;;;;;10.52;6.40;;;1.90;99.90;;;;;;5048874;28;20029;-78
2023/11/27 04:38:26;;;;;;;16.20;5.97;;;1.90;99.90;;;;;;5042835;28;20021;-77
2023/11/27 04:40:52;;;;;;;10.07;7.22;;;1.90;99.90;;;;;;5049348;28;20033;-78
2023/11/27 04:43:18;;;;;;;11.57;6.88;;;1.90;99.90;;;;;;5050237;28;20044;-78
2023/11/27 04:45:44;;;;;;;10.38;6.53;;;1.90;99.90;;;;;;5052033;28;20082;-78
2023/11/27 04:48:10;;;;;;;10.60;6.50;;;1.90;99.90;;;;;;5058318;28;20411;-79
2023/11/27 04:50:36;;;;;;;12.68;6.43;;;1.90;99.90;;;;;;5047972;28;20044;-79
2023/11/27 04:53:02;;;;;;;16.58;6.90;;;1.90;99.90;;;;;;5044325;28;20112;-78
2023/11/27 04:55:27;;;;;;;11.60;7.13;;;1.90;99.90;;;;;;5046559;28;21498;-78
2023/11/27 04:57:53;;;;;;;12.77;6.80;;;2.00;99.90;;;;;;5047366;28;20060;-78
2023/11/27 05:00:19;;;;;;;12.85;7.13;;;1.90;99.90;;;;;;5050769;28;20032;-78
2023/11/27 05:02:45;;;;;;;16.55;7.55;;;1.90;99.90;;;;;;5037748;28;20507;-78
2023/11/27 05:05:16;;;;;;;14.30;6.22;;;1.90;99.90;;;;;;5047234;28;20155;-78
2023/11/27 05:07:42;;;;;;;11.50;6.97;;;1.80;99.90;;;;;;5037900;28;20037;-78
2023/11/27 05:10:10;;;;;;;11.88;7.18;;;1.80;99.90;;;;;;5050309;28;20491;-78
2023/11/27 05:12:35;;;;;;;14.32;6.43;;;1.90;99.90;;;;;;5038472;28;20051;-78
2023/11/27 05:15:03;;;;;;;14.82;8.15;;;1.80;99.90;;;;;;5043115;28;20041;-78
2023/11/27 05:17:29;;;;;;;13.13;8.52;;;1.80;99.90;;;;;;5040090;28;20640;-78
2023/11/27 05:19:55;;;;;;;15.60;6.45;;;1.80;99.90;;;;;;5038553;28;20064;-78
2023/11/27 05:22:21;;;;;;;14.98;6.75;;;1.80;99.90;;;;;;5042676;28;20531;-78
2023/11/27 05:24:47;;;;;;;12.18;6.97;;;1.80;99.90;;;;;;5037210;28;20030;-79
2023/11/27 05:27:13;;;;;;;15.48;7.63;;;1.80;99.90;;;;;;5045581;28;20048;-78
2023/11/27 05:29:39;;;;;;;16.13;8.10;;;1.80;99.90;;;;;;5049978;28;20111;-78
2023/11/27 05:32:08;;;;;;;11.25;7.25;;;1.80;99.90;;;;;;5052076;28;20115;-78
2023/11/27 05:34:37;;;;;;;11.52;7.93;;;1.80;99.90;;;;;;5045255;28;20041;-78
2023/11/27 05:37:06;;;;;;;15.80;8.43;;;1.80;99.90;;;;;;5042718;28;20034;-78
2023/11/27 05:39:33;;;;;;;20.48;8.23;;;1.80;99.90;;;;;;5039374;28;20029;-79
2023/11/27 05:42:02;;;;;;;18.52;7.35;;;1.80;99.90;;;;;;5047384;28;20507;-78
2023/11/27 05:44:28;;;;;;;17.88;8.38;;;1.70;99.90;;;;;;5055414;28;20126;-78
2023/11/27 05:46:54;;;;;;;13.23;7.75;;;1.70;99.90;;;;;;5057345;28;20025;-78
2023/11/27 05:49:20;;;;;;;15.75;8.63;;;1.80;99.90;;;;;;5056411;28;20362;-78
2023/11/27 05:51:46;;;;;;;13.50;7.63;;;1.80;99.90;;;;;;5054153;28;20029;-77
2023/11/27 05:54:12;;;;;;;15.95;8.02;;;1.70;99.90;;;;;;5055153;28;20719;-79
2023/11/27 05:56:38;;;;;;;18.75;8.18;;;1.70;99.90;;;;;;5061332;28;20044;-78
2023/11/27 05:59:04;;;;;;;16.80;8.30;;;1.70;99.90;;;;;;5054143;28;20044;-78
2023/11/27 06:01:31;;;;;;;13.43;7.80;;;1.70;99.90;;;;;;5053172;28;20032;-78
2023/11/27 06:03:57;;;;;;;15.95;7.40;;;1.70;99.90;;;;;;5051433;28;20088;-77
2023/11/27 06:06:22;;;;;;;18.25;8.00;;;1.70;99.90;;;;;;5057107;28;20114;-77
2023/11/27 06:08:49;;;;;;;14.38;8.02;;;1.70;99.90;;;;;;5052786;28;20032;-77
2023/11/27 06:11:14;;;;;;;19.98;7.97;;;1.70;99.90;;;;;;5058412;28;20025;-77
2023/11/27 06:13:43;;;;;;;13.95;7.53;;;1.70;99.90;;;;;;5059859;28;20599;-78
2023/11/27 06:16:10;;;;;;;14.35;7.68;;;1.60;99.90;;;;;;5056799;28;20440;-78
2023/11/27 06:18:36;;;;;;;17.67;7.43;;;1.70;99.90;;;;;;5050252;28;20033;-78
2023/11/27 06:21:03;;;;;;;19.48;7.60;;;1.70;99.90;;;;;;5060492;28;20031;-78
2023/11/27 06:23:29;;;;;;;17.77;8.05;;;1.70;99.90;;;;;;5049917;28;20061;-78
2023/11/27 06:25:56;;;;;;;16.85;7.05;;;1.70;99.90;;;;;;5061293;28;20060;-78
2023/11/27 06:28:22;;;;;;;17.33;7.40;;;1.70;99.90;;;;;;5042268;28;20796;-78
2023/11/27 06:30:50;;;;;;;14.73;7.78;;;1.60;99.90;;;;;;5049992;28;20518;-78
2023/11/27 06:33:16;;;;;;;18.25;7.85;;;1.70;99.90;;;;;;5050624;28;20026;-79
2023/11/27 06:35:42;;;;;;;22.50;7.35;;;1.80;99.90;;;;;;5056305;28;20032;-77
2023/11/27 06:38:08;;;;;;;17.25;7.93;;;1.70;99.90;;;;;;5058961;28;20571;-77
2023/11/27 06:40:34;;;;;;;18.30;7.45;;;1.80;99.90;;;;;;5050139;28;20025;-78
2023/11/27 06:42:59;;;;;;;15.27;8.20;;;1.80;99.90;;;;;;5065995;28;20037;-77
2023/11/27 06:45:25;;;;;;;15.45;7.65;;;1.80;99.90;;;;;;5061357;28;20093;-77
2023/11/27 06:47:51;;;;;;;18.40;7.93;;;1.80;99.90;;;;;;5057067;28;20120;-77
2023/11/27 06:50:20;;;;;;;19.10;8.73;;;1.90;99.90;;;;;;5051072;28;20029;-77
2023/11/27 06:52:46;;;;;;;17.58;8.52;;;1.90;99.90;;;;;;5050983;28;20033;-77
2023/11/27 06:55:13;;;;;;;13.00;8.05;;;1.80;99.90;;;;;;5052096;28;20106;-77
2023/11/27 06:57:39;;;;;;;15.05;8.23;;;1.80;99.90;;;;;;5052441;28;20441;-78
2023/11/27 07:00:10;;;;;;;20.55;8.50;;;1.80;99.90;;;;;;5052093;28;20041;-77
2023/11/27 07:02:36;;;;;;;17.05;8.02;;;1.80;99.90;;;;;;5058987;28;20037;-78
2023/11/27 07:05:05;;;;;;;17.80;9.15;;;1.80;99.90;;;;;;5059131;28;20136;-77
2023/11/27 07:07:30;;;;;;;16.85;8.40;;;1.70;99.90;;;;;;5049695;28;20021;-76
2023/11/27 07:09:56;;;;;;;19.85;8.63;;;1.70;99.90;;;;;;5051639;28;20035;-77
2023/11/27 07:12:23;;;;;;;17.15;8.27;;;1.70;99.90;;;;;;5049506;28;20034;-77
2023/11/27 07:14:49;;;;;;;17.20;8.30;;;1.70;99.90;;;;;;5050844;28;20099;-77
2023/11/27 07:17:15;;;;;;;13.13;7.85;;;1.70;99.90;;;;;;5049210;28;20033;-77
2023/11/27 07:19:42;;;;;;;16.52;8.38;;;1.70;99.90;;;;;;5044542;28;20055;-77
2023/11/27 07:22:08;;;;;;;18.73;9.13;;;1.70;99.90;;;;;;5047747;28;20098;-77
2023/11/27 07:24:34;;;;;;;19.92;9.27;;;1.70;99.90;;;;;;5041597;28;20049;-77
2023/11/27 07:27:02;;;;;;;11.88;7.28;;;1.70;99.90;;;;;;5044968;28;20080;-77
2023/11/27 07:29:28;;;;;;;15.38;7.40;;;1.70;99.90;;;;;;5043456;28;20112;-78
2023/11/27 07:31:54;;;;;;;15.80;7.85;;;1.70;99.90;;;;;;5044639;28;20117;-77
2023/11/27 07:34:21;;;;;;;20.27;8.23;;;1.90;99.90;;;;;;5039049;28;20029;-77
2023/11/27 07:36:47;;;;;;;12.63;7.78;;;1.80;99.90;;;;;;5044778;28;20071;-78
2023/11/27 07:39:13;;;;;;;15.65;7.93;;;1.80;99.90;;;;;;5035421;28;20491;-78
2023/11/27 07:41:39;;;;;;;16.17;7.38;;;1.80;99.90;;;;;;5038484;28;20021;-77
2023/11/27 07:44:12;;;;;;;18.95;7.45;;;1.80;99.90;;;;;;5037911;28;20082;-77
2023/11/27 07:46:38;;;;;;;11.48;7.05;;;1.70;99.90;;;;;;5044361;28;20033;-77
2023/11/27 07:49:04;;;;;;;19.85;7.40;;;1.70;99.90;;;;;;5043441;28;20119;-77
2023/11/27 07:51:30;;;;;;;12.45;6.18;;;1.70;99.90;;;;;;5038169;28;20077;-77
2023/11/27 07:53:56;;;;;;;12.25;6.63;;;1.70;99.90;;;;;;5040895;28;20489;-77
2023/11/27 07:56:27;;;;;;;15.20;7.22;;;1.80;99.90;;;;;;5045950;28;20063;-78
2023/11/27 07:58:54;;;;;;;11.73;6.88;;;1.80;99.90;;;;;;5041193;28;20025;-77
2023/11/27 08:01:20;;;;;;;17.63;7.13;;;1.80;99.90;;;;;;5040857;28;20609;-77
2023/11/27 08:03:47;;;;;;;14.13;6.57;;;1.80;99.90;;;;;;5040073;28;20041;-77
2023/11/27 08:06:14;;;;;;;14.88;6.47;;;1.80;99.90;;;;;;5047458;28;20048;-77
2023/11/27 08:08:41;;;;;;;13.55;6.40;;;1.90;99.90;;;;;;5044259;28;20154;-77
2023/11/27 08:11:09;;;;;;;12.15;6.53;;;1.90;99.90;;;;;;5050582;28;20061;-77
2023/11/27 08:13:36;;;;;;;10.15;5.97;;;1.80;99.90;;;;;;5049493;28;20044;-77
2023/11/27 08:16:02;;;;;;;15.05;6.50;;;1.90;99.90;;;;;;5050568;28;20040;-76
2023/11/27 08:18:28;;;;;;;16.42;6.60;;;1.90;99.90;;;;;;5041560;28;20028;-77
2023/11/27 08:20:54;;;;;;;13.05;7.40;;;1.90;99.90;;;;;;5043313;28;20375;-77
2023/11/27 08:23:19;;;;;;;24.77;6.72;;;2.00;99.90;;;;;;5047870;28;20032;-77
2023/11/27 08:25:45;;;;;;;15.75;7.00;;;2.00;99.90;;;;;;5052938;28;20070;-76
2023/11/27 08:28:12;;;;;;;9.73;6.20;;;2.00;99.90;;;;;;5049245;28;20033;-77
2023/11/27 08:30:41;;;;;;;14.30;7.05;;;2.00;99.90;;;;;;5046375;28;20059;-77
2023/11/27 08:33:07;;;;;;;15.50;6.78;;;2.00;99.90;;;;;;5042549;28;20395;-77
2023/11/27 08:35:34;;;;;;;12.85;6.55;;;2.10;99.90;;;;;;5039512;28;20033;-77
2023/11/27 08:38:00;;;;;;;11.63;6.25;;;2.10;99.90;;;;;;5043651;28;20049;-77
2023/11/27 08:40:26;;;;;;;14.70;6.65;;;2.10;99.90;;;;;;5050776;28;20051;-77
2023/11/27 08:42:52;;;;;;;12.77;6.63;;;2.20;99.90;;;;;;5042198;28;20025;-77
2023/11/27 08:45:18;;;;;;;10.80;6.15;;;2.20;99.90;;;;;;5040979;28;20650;-77
2023/11/27 08:47:53;;;;;;;17.67;7.30;;;2.20;99.90;;;;;;5049913;28;20144;-77
2023/11/27 08:50:24;;;;;;;14.63;6.70;;;2.20;99.90;;;;;;5044640;28;20025;-77
2023/11/27 08:52:50;;;;;;;12.65;7.00;;;2.20;99.90;;;;;;5049139;28;20041;-77
2023/11/27 08:55:19;;;;;;;14.38;6.80;;;2.30;99.90;;;;;;5040745;28;20100;-78
2023/11/27 08:57:48;;;;;;;16.45;6.68;;;2.30;99.90;;;;;;5048525;28;20028;-78
2023/11/27 09:00:18;;;;;;;13.20;6.25;;;2.30;99.90;;;;;;5039923;28;20029;-77
2023/11/27 09:02:44;;;;;;;16.25;6.80;;;2.30;99.90;;;;;;5049372;28;20033;-78
2023/11/27 09:05:10;;;;;;;13.90;6.10;;;2.30;99.90;;;;;;5039949;28;20021;-76
2023/11/27 09:07:37;;;;;;;17.23;7.07;;;2.40;99.90;;;;;;5044039;28;20029;-79
2023/11/27 09:10:04;;;;;;;11.98;6.65;;;2.40;99.90;;;;;;5048026;28;20029;-76
2023/11/27 09:12:34;;;;;;;16.38;7.13;;;2.40;99.90;;;;;;5042426;28;20395;-79
2023/11/27 09:15:00;;;;;;;15.63;7.35;;;2.50;99.90;;;;;;5040786;28;20037;-77
2023/11/27 09:17:26;;;;;;;16.55;7.15;;;2.50;99.90;;;;;;5046810;28;20071;-79
2023/11/27 09:19:53;;;;;;;12.65;6.10;;;2.50;99.90;;;;;;5044447;28;20028;-79
2023/11/27 09:22:22;;;;;;;22.10;7.30;;;2.50;99.90;;;;;;5040779;28;20031;-77
2023/11/27 09:24:48;;;;;;;14.07;7.32;;;2.60;99.90;;;;;;5046466;28;20155;-77
2023/11/27 09:27:14;;;;;;;12.85;6.38;;;2.60;99.90;;;;;;5043673;28;20047;-77
2023/11/27 09:29:40;;;;;;;11.10;6.57;;;2.60;99.90;;;;;;5033576;28;20041;-78
2023/11/27 09:32:06;;;;;;;15.63;6.57;;;2.60;99.90;;;;;;5047253;28;20052;-77
2023/11/27 09:34:32;;;;;;;13.40;6.68;;;2.60;99.90;;;;;;5043811;28;20392;-77
2023/11/27 09:36:58;;;;;;;9.52;6.55;;;2.70;99.90;;;;;;5036264;28;20053;-75
2023/11/27 09:39:24;;;;;;;13.93;6.57;;;2.70;99.90;;;;;;5033400;28;20128;-75
2023/11/27 09:41:50;;;;;;;11.25;6.75;;;2.70;99.90;;;;;;5037223;28;20112;-76
2023/11/27 09:44:18;;;;;;;14.13;6.50;;;2.80;99.90;;;;;;5033360;28;20020;-75
2023/11/27 09:46:46;;;;;;;12.30;7.00;;;2.70;99.90;;;;;;5036639;28;20036;-75
2023/11/27 09:49:20;;;;;;;16.20;6.75;;;2.80;99.90;;;;;;5040668;28;20532;-74
2023/11/27 09:51:53;;;;;;;9.57;5.45;;;2.80;99.90;;;;;;5037494;28;20040;-74
2023/11/27 09:54:25;;;;;;;12.15;5.90;;;2.80;99.90;;;;;;5036976;28;20044;-74
2023/11/27 09:56:53;;;;;;;12.38;5.80;;;2.90;99.90;;;;;;5040455;28;20498;-74
2023/11/27 09:59:23;;;;;;;10.32;5.45;;;2.90;99.90;;;;;;5034937;28;20044;-74
2023/11/27 10:01:48;;;;;;;14.82;6.03;;;2.90;99.90;;;;;;5039845;28;20021;-74
2023/11/27 10:04:15;;;;;;;10.02;5.65;;;2.90;99.90;;;;;;5040918;28;20514;-75
2023/11/27 10:06:44;;;;;;;13.55;5.90;;;2.90;99.90;;;;;;5035899;28;20044;-74
2023/11/27 10:09:14;;;;;;;10.35;5.47;;;2.90;99.90;;;;;;5035770;28;20396;-74
2023/11/27 10:11:43;;;;;;;9.60;4.93;;;2.90;99.90;;;;;;5039738;28;20682;-74
2023/11/27 10:14:08;;;;;;;9.50;5.78;;;2.90;99.90;;;;;;5041393;28;20661;-74
2023/11/27 10:16:35;;;;;;;10.63;5.45;;;2.90;99.90;;;;;;5039725;28;20041;-74
2023/11/27 10:19:08;;;;;;;15.52;5.60;;;2.90;99.90;;;;;;5039263;28;20086;-74
2023/11/27 10:21:35;;;;;;;10.60;5.82;;;3.00;99.90;;;;;;5040728;28;20038;-77
2023/11/27 10:24:03;;;;;;;8.68;5.05;;;3.00;99.90;;;;;;5037979;28;20022;-77
2023/11/27 10:26:30;;;;;;;11.18;4.95;;;3.00;99.90;;;;;;5043651;28;20025;-76
2023/11/27 10:28:57;;;;;;;11.70;5.70;;;3.00;99.90;;;;;;5039156;28;20037;-76
2023/11/27 10:31:24;;;;;;;8.48;5.03;;;3.00;99.90;;;;;;5034091;28;20029;-78
2023/11/27 10:33:51;;;;;;;13.32;5.35;;;3.00;99.90;;;;;;5042952;28;20431;-76
2023/11/27 10:36:23;;;;;;;9.65;5.15;;;3.00;99.90;;;;;;5046211;28;20032;-76
2023/11/27 10:39:15;;;;;;;8.63;4.68;;;3.00;99.90;;;;;;5033662;28;20034;-76
2023/11/27 10:41:46;;;;;;;11.23;5.32;;;3.00;99.90;;;;;;5035558;28;20078;-77
2023/11/27 10:44:15;;;;;;;13.43;5.53;;;3.00;99.90;;;;;;5037075;28;20107;-76
2023/11/27 10:46:43;;;;;;;12.52;5.28;;;3.00;99.90;;;;;;5036751;28;20120;-75
2023/11/27 10:49:14;;;;;;;10.60;5.75;;;3.00;99.90;;;;;;5038837;28;20040;-74
2023/11/27 10:51:42;;;;;;;11.20;5.90;;;3.10;99.90;;;;;;5035469;28;20036;-75
2023/11/27 10:54:09;;;;;;;11.02;6.18;;;3.10;99.90;;;;;;5034468;28;20112;-74
2023/11/27 10:56:37;;;;;;;14.45;4.97;;;3.10;99.90;;;;;;5032302;28;20087;-76
2023/11/27 10:59:08;;;;;;;11.65;5.63;;;3.00;99.90;;;;;;5037682;28;20036;-76
2023/11/27 11:01:39;;;;;;;10.13;5.03;;;3.00;99.90;;;;;;5038001;28;20124;-76
2023/11/27 11:04:09;;;;;;;10.77;5.95;;;3.00;99.90;;;;;;5030652;28;20025;-76
2023/11/27 11:06:42;;;;;;;9.57;5.40;;;3.00;99.90;;;;;;5036317;28;20561;-76
2023/11/27 11:09:12;;;;;;;10.38;5.50;;;3.00;99.90;;;;;;5034755;28;20119;-74
2023/11/27 11:11:40;;;;;;;12.82;5.65;;;3.00;99.90;;;;;;5039279;28;20028;-76
2023/11/27 11:14:07;;;;;;;8.25;5.25;;;3.00;99.90;;;;;;5036740;28;20403;-76
2023/11/27 11:16:47;;;;;;;13.27;5.82;;;3.00;99.90;;;;;;5044401;28;20108;-76
2023/11/27 11:19:27;;;;;;;7.38;4.82;;;3.00;99.90;;;;;;5026393;28;20029;-76
2023/11/27 11:22:05;;;;;;;6.90;5.00;;;3.00;99.90;;;;;;5056281;28;20037;-76
2023/11/27 11:24:37;;;;;;;13.32;5.30;;;2.90;99.90;;;;;;5033507;28;20029;-76
2023/11/27 11:27:23;;;;;;;9.75;5.35;;;3.00;99.90;;;;;;5036750;28;20025;-76
2023/11/27 11:29:51;;;;;;;15.32;5.35;;;3.00;99.90;;;;;;5032038;28;20060;-76
2023/11/27 11:32:17;;;;;;;10.10;5.68;;;3.00;99.90;;;;;;5035483;28;20032;-75
2023/11/27 11:34:49;;;;;;;9.70;5.25;;;3.00;99.90;;;;;;5037925;28;20629;-76
2023/11/27 11:37:17;;;;;;;10.93;6.25;;;3.00;99.90;;;;;;5042303;28;20029;-76
2023/11/27 11:39:52;;;;;;;8.15;5.13;;;3.00;99.90;;;;;;5032590;28;20123;-77
2023/11/27 11:42:29;;;;;;;8.25;5.40;;;3.00;99.90;;;;;;5055191;28;20032;-77
2023/11/27 11:45:16;;;;;;;11.00;5.57;;;3.00;99.90;;;;;;5040320;28;20036;-77
2023/11/27 11:47:42;;;;;;;12.05;6.18;;;3.00;99.90;;;;;;5046295;28;20057;-77
2023/11/27 11:50:34;;;;;;;9.85;5.68;;;3.00;99.90;;;;;;5050843;28;20102;-76
2023/11/27 11:53:25;;;;;;;12.10;7.03;;;3.00;99.90;;;;;;5039326;28;20029;-76
2023/11/27 11:55:53;;;;;;;11.15;5.78;;;3.10;99.90;;;;;;5043214;28;20541;-76
2023/11/27 11:58:18;;;;;;;11.57;6.25;;;3.00;99.90;;;;;;5045840;28;20060;-76
2023/11/27 12:00:45;;;;;;;13.38;6.97;;;3.00;99.90;;;;;;5039060;28;20116;-76
2023/11/27 12:03:15;;;;;;;11.80;7.05;;;3.00;99.90;;;;;;5045729;28;20632;-76
2023/11/27 12:05:53;;;;;;;15.02;7.40;;;3.00;99.90;;;;;;5044030;28;20787;-77
2023/11/27 12:08:28;;;;;;;13.63;7.03;;;3.00;99.90;;;;;;5045618;28;20427;-75
2023/11/27 12:10:54;;;;;;;;;;;3.00;99.90;;;;;;5046449;28;20109;-76
2023/11/27 12:13:23;;;;;;;12.80;6.05;;;3.00;99.90;;;;;;5043323;28;19947;-76
2023/11/27 12:15:57;;;;;;;14.30;6.50;;;2.90;99.90;;;;;;5056974;28;20043;-77
2023/11/27 12:18:25;;;;;;;11.73;6.28;;;3.00;99.90;;;;;;5043519;28;20065;-76
2023/11/27 12:20:52;;;;;;;11.35;6.40;;;2.90;99.90;;;;;;5042116;28;20029;-76
2023/11/27 12:23:18;;;;;;;14.27;7.68;;;2.90;99.90;;;;;;5045344;28;20094;-76
2023/11/27 12:25:44;;;;;;;16.02;6.75;;;2.90;99.90;;;;;;5044148;28;20510;-76
2023/11/27 12:28:11;;;;;;;12.30;6.45;;;2.90;99.90;;;;;;5043814;28;20052;-76
2023/11/27 12:30:38;;;;;;;11.43;6.55;;;2.90;99.90;;;;;;5043984;28;20049;-76
2023/11/27 12:33:05;;;;;;;9.48;5.85;;;2.90;99.90;;;;;;5040331;28;20044;-75
2023/11/27 12:35:34;;;;;;;9.93;5.45;;;2.80;99.90;;;;;;5043805;28;20033;-75
2023/11/27 12:38:05;;;;;;;10.10;5.90;;;2.80;99.90;;;;;;5036221;28;20061;-76
2023/11/27 12:40:33;;;;;;;9.32;5.88;;;2.70;99.90;;;;;;5039289;28;20090;-76
2023/11/27 12:43:00;;;;;;;8.77;5.05;;;2.70;99.90;;;;;;5044341;28;20095;-76
2023/11/27 12:45:27;;;;;;;9.02;4.90;;;2.70;99.90;;;;;;5043803;28;20479;-75
2023/11/27 12:47:56;;;;;;;6.10;3.95;;;2.70;99.90;;;;;;5047242;28;20029;-76
2023/11/27 12:50:30;;;;;;;6.05;4.10;;;2.70;99.90;;;;;;5044502;28;20033;-75
2023/11/27 12:53:03;;;;;;;8.15;4.53;;;2.70;99.90;;;;;;5043972;28;20068;-75